Deptford Township, New Jersey
Current Conditions -  °F | °C
As of 10:54 PM on Thursday 27 Nov 2014 (Local Time) from KPHL Reporting Station
Clear Clear  
Wind Chill: -4°   Ceiling: Unl
Heat Index: -1°   Visibility: 10mi
Dew Point: -4°   Wind: 6mph
Humidity: 76%   Direction: 280°W
Pressure: 30.13"   Gusts: NA
Location:  39.8266°N, 75.1276°W
Report Text: KPHL 280354Z 28005KT 10SM CLR M01/M04 A3013 RMK AO2 SLP203 T10061044 $
Loading
Personal Weather Stations






























Interactive Weather Map New forecast layout! Learn more

10-Day Weather Forecast

Advertisements
Track Severe Weather on mobile